sensor_id;sensor_type;location;lat;lon;timestamp;P1;durP1;ratioP1;P2;durP2;ratioP2
75191;SDS011;63771;52.580;9.734;2023-05-08T00:00:57;6.80;;;6.07;;
75191;SDS011;63771;52.580;9.734;2023-05-08T00:03:23;7.47;;;6.22;;
75191;SDS011;63771;52.580;9.734;2023-05-08T00:05:48;7.13;;;6.53;;
75191;SDS011;63771;52.580;9.734;2023-05-08T00:08:14;6.37;;;5.87;;
75191;SDS011;63771;52.580;9.734;2023-05-08T00:10:39;6.90;;;6.30;;
75191;SDS011;63771;52.580;9.734;2023-05-08T00:13:04;6.63;;;6.20;;
75191;SDS011;63771;52.580;9.734;2023-05-08T00:15:29;6.93;;;6.33;;
75191;SDS011;63771;52.580;9.734;2023-05-08T00:17:55;6.53;;;5.93;;
75191;SDS011;63771;52.580;9.734;2023-05-08T00:20:21;6.78;;;5.70;;
75191;SDS011;63771;52.580;9.734;2023-05-08T00:22:46;7.07;;;6.40;;
75191;SDS011;63771;52.580;9.734;2023-05-08T00:25:12;6.43;;;5.80;;
75191;SDS011;63771;52.580;9.734;2023-05-08T00:27:37;7.47;;;6.87;;
75191;SDS011;63771;52.580;9.734;2023-05-08T00:30:02;7.97;;;6.20;;
75191;SDS011;63771;52.580;9.734;2023-05-08T00:32:28;6.68;;;6.07;;
75191;SDS011;63771;52.580;9.734;2023-05-08T00:34:53;6.10;;;5.60;;
75191;SDS011;63771;52.580;9.734;2023-05-08T00:37:19;6.67;;;6.07;;
75191;SDS011;63771;52.580;9.734;2023-05-08T00:39:44;6.47;;;5.97;;
75191;SDS011;63771;52.580;9.734;2023-05-08T00:42:09;6.83;;;6.27;;
75191;SDS011;63771;52.580;9.734;2023-05-08T00:44:34;7.60;;;6.57;;
75191;SDS011;63771;52.580;9.734;2023-05-08T00:47:00;7.27;;;6.57;;
75191;SDS011;63771;52.580;9.734;2023-05-08T00:49:26;8.10;;;7.50;;
75191;SDS011;63771;52.580;9.734;2023-05-08T00:51:52;6.93;;;6.32;;
75191;SDS011;63771;52.580;9.734;2023-05-08T00:54:19;6.78;;;6.07;;
75191;SDS011;63771;52.580;9.734;2023-05-08T00:56:45;6.28;;;5.75;;
75191;SDS011;63771;52.580;9.734;2023-05-08T00:59:12;7.10;;;6.60;;
75191;SDS011;63771;52.580;9.734;2023-05-08T01:01:38;6.60;;;6.10;;
75191;SDS011;63771;52.580;9.734;2023-05-08T01:04:05;6.50;;;6.00;;
75191;SDS011;63771;52.580;9.734;2023-05-08T01:06:30;7.60;;;6.45;;
75191;SDS011;63771;52.580;9.734;2023-05-08T01:08:56;6.22;;;5.72;;
75191;SDS011;63771;52.580;9.734;2023-05-08T01:11:30;6.78;;;6.13;;
75191;SDS011;63771;52.580;9.734;2023-05-08T01:14:23;6.15;;;5.65;;
75191;SDS011;63771;52.580;9.734;2023-05-08T01:17:23;7.30;;;6.65;;
75191;SDS011;63771;52.580;9.734;2023-05-08T01:20:09;7.25;;;6.60;;
75191;SDS011;63771;52.580;9.734;2023-05-08T01:22:46;7.45;;;6.72;;
75191;SDS011;63771;52.580;9.734;2023-05-08T01:28:42;6.28;;;5.68;;
75191;SDS011;63771;52.580;9.734;2023-05-08T01:34:23;6.35;;;5.85;;
75191;SDS011;63771;52.580;9.734;2023-05-08T01:39:20;6.97;;;6.47;;
75191;SDS011;63771;52.580;9.734;2023-05-08T01:42:03;6.93;;;6.43;;
75191;SDS011;63771;52.580;9.734;2023-05-08T01:44:36;6.82;;;6.25;;
75191;SDS011;63771;52.580;9.734;2023-05-08T01:47:06;7.68;;;7.07;;
75191;SDS011;63771;52.580;9.734;2023-05-08T01:49:35;8.18;;;7.47;;
75191;SDS011;63771;52.580;9.734;2023-05-08T01:52:12;13.98;;;7.03;;
75191;SDS011;63771;52.580;9.734;2023-05-08T01:54:57;7.10;;;6.50;;
75191;SDS011;63771;52.580;9.734;2023-05-08T01:57:27;7.65;;;6.95;;
75191;SDS011;63771;52.580;9.734;2023-05-08T01:59:55;9.13;;;8.32;;
75191;SDS011;63771;52.580;9.734;2023-05-08T02:02:21;7.70;;;6.95;;
75191;SDS011;63771;52.580;9.734;2023-05-08T02:04:48;7.55;;;6.85;;
75191;SDS011;63771;52.580;9.734;2023-05-08T02:07:14;7.35;;;6.72;;
75191;SDS011;63771;52.580;9.734;2023-05-08T02:09:41;9.07;;;8.27;;
75191;SDS011;63771;52.580;9.734;2023-05-08T02:12:08;7.93;;;7.28;;
75191;SDS011;63771;52.580;9.734;2023-05-08T02:14:36;8.18;;;7.45;;
75191;SDS011;63771;52.580;9.734;2023-05-08T02:17:02;7.47;;;6.82;;
75191;SDS011;63771;52.580;9.734;2023-05-08T02:19:30;7.57;;;6.97;;
75191;SDS011;63771;52.580;9.734;2023-05-08T02:21:57;8.00;;;7.30;;
75191;SDS011;63771;52.580;9.734;2023-05-08T02:24:24;15.25;;;8.48;;
75191;SDS011;63771;52.580;9.734;2023-05-08T02:26:50;7.15;;;6.50;;
75191;SDS011;63771;52.580;9.734;2023-05-08T02:29:17;7.90;;;7.10;;
75191;SDS011;63771;52.580;9.734;2023-05-08T02:31:44;8.65;;;7.85;;
75191;SDS011;63771;52.580;9.734;2023-05-08T02:34:11;8.95;;;8.13;;
75191;SDS011;63771;52.580;9.734;2023-05-08T02:36:36;8.32;;;7.53;;
75191;SDS011;63771;52.580;9.734;2023-05-08T02:39:03;8.93;;;8.07;;
75191;SDS011;63771;52.580;9.734;2023-05-08T02:41:32;8.95;;;8.15;;
75191;SDS011;63771;52.580;9.734;2023-05-08T02:43:57;8.18;;;7.35;;
75191;SDS011;63771;52.580;9.734;2023-05-08T02:46:28;9.55;;;7.63;;
75191;SDS011;63771;52.580;9.734;2023-05-08T02:49:07;8.43;;;7.72;;
75191;SDS011;63771;52.580;9.734;2023-05-08T02:57:32;8.25;;;7.45;;
75191;SDS011;63771;52.580;9.734;2023-05-08T03:00:11;8.07;;;7.28;;
75191;SDS011;63771;52.580;9.734;2023-05-08T03:02:39;7.80;;;7.15;;
75191;SDS011;63771;52.580;9.734;2023-05-08T03:05:14;8.23;;;7.43;;
75191;SDS011;63771;52.580;9.734;2023-05-08T03:07:42;8.52;;;7.75;;
75191;SDS011;63771;52.580;9.734;2023-05-08T03:10:11;8.57;;;7.47;;
75191;SDS011;63771;52.580;9.734;2023-05-08T03:12:40;7.75;;;7.07;;
75191;SDS011;63771;52.580;9.734;2023-05-08T03:15:11;7.18;;;6.57;;
75191;SDS011;63771;52.580;9.734;2023-05-08T03:17:55;7.82;;;7.13;;
75191;SDS011;63771;52.580;9.734;2023-05-08T03:20:23;8.07;;;7.40;;
75191;SDS011;63771;52.580;9.734;2023-05-08T03:22:50;7.95;;;7.25;;
75191;SDS011;63771;52.580;9.734;2023-05-08T03:25:18;8.10;;;7.40;;
75191;SDS011;63771;52.580;9.734;2023-05-08T03:27:45;7.32;;;6.63;;
75191;SDS011;63771;52.580;9.734;2023-05-08T03:30:12;7.53;;;6.63;;
75191;SDS011;63771;52.580;9.734;2023-05-08T03:32:39;7.72;;;7.03;;
75191;SDS011;63771;52.580;9.734;2023-05-08T03:35:06;7.53;;;6.82;;
75191;SDS011;63771;52.580;9.734;2023-05-08T03:37:33;7.97;;;7.20;;
75191;SDS011;63771;52.580;9.734;2023-05-08T03:39:59;7.68;;;7.03;;
75191;SDS011;63771;52.580;9.734;2023-05-08T03:42:24;7.68;;;6.90;;
75191;SDS011;63771;52.580;9.734;2023-05-08T03:44:51;6.78;;;6.28;;
75191;SDS011;63771;52.580;9.734;2023-05-08T03:47:18;6.10;;;5.60;;
75191;SDS011;63771;52.580;9.734;2023-05-08T03:49:45;8.15;;;7.45;;
75191;SDS011;63771;52.580;9.734;2023-05-08T03:52:14;9.68;;;7.22;;
75191;SDS011;63771;52.580;9.734;2023-05-08T03:54:40;7.97;;;6.65;;
75191;SDS011;63771;52.580;9.734;2023-05-08T03:57:06;6.65;;;5.97;;
75191;SDS011;63771;52.580;9.734;2023-05-08T03:59:43;7.22;;;6.57;;
75191;SDS011;63771;52.580;9.734;2023-05-08T04:05:20;7.85;;;7.05;;
75191;SDS011;63771;52.580;9.734;2023-05-08T04:07:51;8.20;;;7.07;;
75191;SDS011;63771;52.580;9.734;2023-05-08T04:13:04;8.00;;;7.30;;
75191;SDS011;63771;52.580;9.734;2023-05-08T04:18:23;6.85;;;6.25;;
75191;SDS011;63771;52.580;9.734;2023-05-08T04:20:52;7.78;;;7.18;;
75191;SDS011;63771;52.580;9.734;2023-05-08T04:23:19;7.35;;;6.65;;
75191;SDS011;63771;52.580;9.734;2023-05-08T04:25:47;8.35;;;7.55;;
75191;SDS011;63771;52.580;9.734;2023-05-08T04:28:15;8.65;;;7.70;;
75191;SDS011;63771;52.580;9.734;2023-05-08T04:30:41;7.72;;;7.07;;
75191;SDS011;63771;52.580;9.734;2023-05-08T04:33:07;7.35;;;6.75;;
75191;SDS011;63771;52.580;9.734;2023-05-08T04:35:33;7.45;;;6.85;;
75191;SDS011;63771;52.580;9.734;2023-05-08T04:37:59;8.45;;;7.75;;
75191;SDS011;63771;52.580;9.734;2023-05-08T04:40:24;9.48;;;7.82;;
75191;SDS011;63771;52.580;9.734;2023-05-08T04:42:50;7.53;;;6.93;;
75191;SDS011;63771;52.580;9.734;2023-05-08T04:45:15;8.73;;;8.03;;
75191;SDS011;63771;52.580;9.734;2023-05-08T04:47:41;7.45;;;6.85;;
75191;SDS011;63771;52.580;9.734;2023-05-08T04:50:06;7.87;;;7.20;;
75191;SDS011;63771;52.580;9.734;2023-05-08T04:52:32;7.47;;;6.78;;
75191;SDS011;63771;52.580;9.734;2023-05-08T04:54:57;6.57;;;5.87;;
75191;SDS011;63771;52.580;9.734;2023-05-08T04:57:22;7.47;;;6.77;;
75191;SDS011;63771;52.580;9.734;2023-05-08T04:59:48;8.33;;;7.47;;
75191;SDS011;63771;52.580;9.734;2023-05-08T05:02:14;6.27;;;5.70;;
75191;SDS011;63771;52.580;9.734;2023-05-08T05:04:40;6.68;;;6.07;;
75191;SDS011;63771;52.580;9.734;2023-05-08T05:07:05;7.88;;;7.15;;
75191;SDS011;63771;52.580;9.734;2023-05-08T05:09:31;7.37;;;6.63;;
75191;SDS011;63771;52.580;9.734;2023-05-08T05:12:00;9.43;;;6.95;;
75191;SDS011;63771;52.580;9.734;2023-05-08T05:14:26;8.30;;;7.53;;
75191;SDS011;63771;52.580;9.734;2023-05-08T05:16:51;7.47;;;6.77;;
75191;SDS011;63771;52.580;9.734;2023-05-08T05:19:17;8.48;;;7.68;;
75191;SDS011;63771;52.580;9.734;2023-05-08T05:21:42;7.70;;;6.45;;
75191;SDS011;63771;52.580;9.734;2023-05-08T05:24:08;6.97;;;6.38;;
75191;SDS011;63771;52.580;9.734;2023-05-08T05:26:33;9.37;;;8.53;;
75191;SDS011;63771;52.580;9.734;2023-05-08T05:28:58;9.38;;;8.57;;
75191;SDS011;63771;52.580;9.734;2023-05-08T05:31:24;6.67;;;6.10;;
75191;SDS011;63771;52.580;9.734;2023-05-08T05:33:49;8.00;;;7.30;;
75191;SDS011;63771;52.580;9.734;2023-05-08T05:36:15;8.23;;;7.10;;
75191;SDS011;63771;52.580;9.734;2023-05-08T05:38:40;7.90;;;7.18;;
75191;SDS011;63771;52.580;9.734;2023-05-08T05:41:06;9.23;;;8.45;;
75191;SDS011;63771;52.580;9.734;2023-05-08T05:43:31;7.45;;;6.85;;
75191;SDS011;63771;52.580;9.734;2023-05-08T05:46:03;8.18;;;7.57;;
75191;SDS011;63771;52.580;9.734;2023-05-08T05:48:30;7.03;;;6.53;;
75191;SDS011;63771;52.580;9.734;2023-05-08T05:50:55;7.40;;;6.57;;
75191;SDS011;63771;52.580;9.734;2023-05-08T05:53:20;8.38;;;7.13;;
75191;SDS011;63771;52.580;9.734;2023-05-08T05:55:46;7.33;;;6.77;;
75191;SDS011;63771;52.580;9.734;2023-05-08T05:58:11;8.50;;;7.27;;
75191;SDS011;63771;52.580;9.734;2023-05-08T06:00:36;6.97;;;6.33;;
75191;SDS011;63771;52.580;9.734;2023-05-08T06:03:02;8.07;;;6.27;;
75191;SDS011;63771;52.580;9.734;2023-05-08T06:05:27;8.07;;;7.38;;
75191;SDS011;63771;52.580;9.734;2023-05-08T06:07:52;7.83;;;7.03;;
75191;SDS011;63771;52.580;9.734;2023-05-08T06:10:18;8.77;;;7.83;;
75191;SDS011;63771;52.580;9.734;2023-05-08T06:12:43;8.93;;;7.18;;
75191;SDS011;63771;52.580;9.734;2023-05-08T06:15:09;8.32;;;7.55;;
75191;SDS011;63771;52.580;9.734;2023-05-08T06:17:35;8.40;;;7.50;;
75191;SDS011;63771;52.580;9.734;2023-05-08T06:20:00;7.22;;;6.53;;
75191;SDS011;63771;52.580;9.734;2023-05-08T06:22:25;7.70;;;7.05;;
75191;SDS011;63771;52.580;9.734;2023-05-08T06:24:51;7.70;;;7.00;;
75191;SDS011;63771;52.580;9.734;2023-05-08T06:27:19;10.05;;;7.63;;
75191;SDS011;63771;52.580;9.734;2023-05-08T06:29:46;8.60;;;7.80;;
75191;SDS011;63771;52.580;9.734;2023-05-08T06:32:16;8.30;;;7.57;;
75191;SDS011;63771;52.580;9.734;2023-05-08T06:34:42;7.93;;;7.22;;
75191;SDS011;63771;52.580;9.734;2023-05-08T06:37:07;8.70;;;7.80;;
75191;SDS011;63771;52.580;9.734;2023-05-08T06:39:33;8.27;;;7.47;;
75191;SDS011;63771;52.580;9.734;2023-05-08T06:41:58;8.20;;;7.50;;
75191;SDS011;63771;52.580;9.734;2023-05-08T06:44:23;7.50;;;6.90;;
75191;SDS011;63771;52.580;9.734;2023-05-08T06:46:49;8.53;;;7.73;;
75191;SDS011;63771;52.580;9.734;2023-05-08T06:49:14;8.63;;;7.93;;
75191;SDS011;63771;52.580;9.734;2023-05-08T06:51:39;10.43;;;8.05;;
75191;SDS011;63771;52.580;9.734;2023-05-08T06:54:05;8.27;;;7.43;;
75191;SDS011;63771;52.580;9.734;2023-05-08T06:56:32;8.50;;;7.80;;
75191;SDS011;63771;52.580;9.734;2023-05-08T06:58:58;10.65;;;7.20;;
75191;SDS011;63771;52.580;9.734;2023-05-08T07:01:23;8.27;;;7.57;;
75191;SDS011;63771;52.580;9.734;2023-05-08T07:03:49;8.90;;;7.77;;
75191;SDS011;63771;52.580;9.734;2023-05-08T07:06:14;8.93;;;8.00;;
75191;SDS011;63771;52.580;9.734;2023-05-08T07:08:39;8.38;;;7.57;;
75191;SDS011;63771;52.580;9.734;2023-05-08T07:11:04;7.67;;;6.97;;
75191;SDS011;63771;52.580;9.734;2023-05-08T07:13:30;8.00;;;7.30;;
75191;SDS011;63771;52.580;9.734;2023-05-08T07:15:55;7.70;;;6.90;;
75191;SDS011;63771;52.580;9.734;2023-05-08T07:18:20;8.57;;;7.53;;
75191;SDS011;63771;52.580;9.734;2023-05-08T07:20:46;7.18;;;6.57;;
75191;SDS011;63771;52.580;9.734;2023-05-08T07:23:11;7.85;;;6.90;;
75191;SDS011;63771;52.580;9.734;2023-05-08T07:25:37;8.43;;;7.55;;
75191;SDS011;63771;52.580;9.734;2023-05-08T07:28:02;8.25;;;7.43;;
75191;SDS011;63771;52.580;9.734;2023-05-08T07:30:27;8.30;;;7.53;;
75191;SDS011;63771;52.580;9.734;2023-05-08T07:32:53;8.93;;;8.13;;
75191;SDS011;63771;52.580;9.734;2023-05-08T07:35:18;8.27;;;7.53;;
75191;SDS011;63771;52.580;9.734;2023-05-08T07:37:44;9.85;;;7.38;;
75191;SDS011;63771;52.580;9.734;2023-05-08T07:40:09;7.60;;;7.00;;
75191;SDS011;63771;52.580;9.734;2023-05-08T07:42:38;7.82;;;7.13;;
75191;SDS011;63771;52.580;9.734;2023-05-08T07:45:05;8.15;;;7.40;;
75191;SDS011;63771;52.580;9.734;2023-05-08T07:47:31;7.75;;;7.05;;
75191;SDS011;63771;52.580;9.734;2023-05-08T07:49:57;7.90;;;6.97;;
75191;SDS011;63771;52.580;9.734;2023-05-08T07:52:22;8.57;;;7.67;;
75191;SDS011;63771;52.580;9.734;2023-05-08T07:54:47;8.88;;;7.97;;
75191;SDS011;63771;52.580;9.734;2023-05-08T07:57:13;7.87;;;7.03;;
75191;SDS011;63771;52.580;9.734;2023-05-08T07:59:38;8.27;;;6.80;;
75191;SDS011;63771;52.580;9.734;2023-05-08T08:02:03;8.10;;;7.37;;
75191;SDS011;63771;52.580;9.734;2023-05-08T08:04:28;6.87;;;6.23;;
75191;SDS011;63771;52.580;9.734;2023-05-08T08:06:54;7.63;;;6.93;;
75191;SDS011;63771;52.580;9.734;2023-05-08T08:09:19;8.93;;;8.13;;
75191;SDS011;63771;52.580;9.734;2023-05-08T08:11:44;7.77;;;7.07;;
75191;SDS011;63771;52.580;9.734;2023-05-08T08:14:10;8.27;;;7.07;;
75191;SDS011;63771;52.580;9.734;2023-05-08T08:16:35;8.38;;;7.68;;
75191;SDS011;63771;52.580;9.734;2023-05-08T08:19:00;7.67;;;7.03;;
75191;SDS011;63771;52.580;9.734;2023-05-08T08:21:26;7.55;;;6.95;;
75191;SDS011;63771;52.580;9.734;2023-05-08T08:23:51;7.70;;;7.00;;
75191;SDS011;63771;52.580;9.734;2023-05-08T08:26:16;7.80;;;7.20;;
75191;SDS011;63771;52.580;9.734;2023-05-08T08:28:42;8.37;;;7.67;;
75191;SDS011;63771;52.580;9.734;2023-05-08T08:31:07;7.72;;;7.03;;
75191;SDS011;63771;52.580;9.734;2023-05-08T08:33:33;9.93;;;7.13;;
75191;SDS011;63771;52.580;9.734;2023-05-08T08:35:58;7.10;;;6.50;;
75191;SDS011;63771;52.580;9.734;2023-05-08T08:38:23;9.33;;;7.73;;
75191;SDS011;63771;52.580;9.734;2023-05-08T08:40:48;8.13;;;7.27;;
75191;SDS011;63771;52.580;9.734;2023-05-08T08:43:14;8.17;;;7.33;;
75191;SDS011;63771;52.580;9.734;2023-05-08T08:45:39;7.53;;;6.80;;
75191;SDS011;63771;52.580;9.734;2023-05-08T08:48:06;8.25;;;7.45;;
75191;SDS011;63771;52.580;9.734;2023-05-08T08:50:35;9.02;;;8.15;;
75191;SDS011;63771;52.580;9.734;2023-05-08T08:53:09;8.23;;;7.20;;
75191;SDS011;63771;52.580;9.734;2023-05-08T08:55:40;7.05;;;6.45;;
75191;SDS011;63771;52.580;9.734;2023-05-08T08:58:26;7.82;;;7.07;;
75191;SDS011;63771;52.580;9.734;2023-05-08T09:00:58;6.85;;;6.03;;
75191;SDS011;63771;52.580;9.734;2023-05-08T09:03:24;7.47;;;6.75;;
75191;SDS011;63771;52.580;9.734;2023-05-08T09:05:51;8.48;;;7.68;;
75191;SDS011;63771;52.580;9.734;2023-05-08T09:08:17;6.85;;;6.25;;
75191;SDS011;63771;52.580;9.734;2023-05-08T09:10:43;8.23;;;7.43;;
75191;SDS011;63771;52.580;9.734;2023-05-08T09:13:09;8.55;;;7.65;;
75191;SDS011;63771;52.580;9.734;2023-05-08T09:15:34;7.78;;;7.18;;
75191;SDS011;63771;52.580;9.734;2023-05-08T09:18:00;7.07;;;6.43;;
75191;SDS011;63771;52.580;9.734;2023-05-08T09:20:26;6.30;;;5.75;;
75191;SDS011;63771;52.580;9.734;2023-05-08T09:22:52;6.97;;;6.28;;
75191;SDS011;63771;52.580;9.734;2023-05-08T09:25:18;7.03;;;6.32;;
75191;SDS011;63771;52.580;9.734;2023-05-08T09:27:43;10.05;;;6.82;;
75191;SDS011;63771;52.580;9.734;2023-05-08T09:30:09;8.10;;;7.40;;
75191;SDS011;63771;52.580;9.734;2023-05-08T09:32:38;9.63;;;6.85;;
75191;SDS011;63771;52.580;9.734;2023-05-08T09:35:04;6.93;;;6.28;;
75191;SDS011;63771;52.580;9.734;2023-05-08T09:37:31;6.93;;;6.25;;
75191;SDS011;63771;52.580;9.734;2023-05-08T09:42:46;7.07;;;6.47;;
75191;SDS011;63771;52.580;9.734;2023-05-08T09:45:24;6.50;;;5.93;;
75191;SDS011;63771;52.580;9.734;2023-05-08T09:47:51;6.40;;;5.75;;
75191;SDS011;63771;52.580;9.734;2023-05-08T09:50:16;7.70;;;6.97;;
75191;SDS011;63771;52.580;9.734;2023-05-08T09:52:44;7.90;;;7.10;;
75191;SDS011;63771;52.580;9.734;2023-05-08T09:55:11;7.63;;;6.93;;
75191;SDS011;63771;52.580;9.734;2023-05-08T09:57:37;7.25;;;6.65;;
75191;SDS011;63771;52.580;9.734;2023-05-08T10:00:05;6.88;;;6.28;;
75191;SDS011;63771;52.580;9.734;2023-05-08T10:02:38;6.38;;;5.85;;
75191;SDS011;63771;52.580;9.734;2023-05-08T10:05:21;6.75;;;5.45;;
75191;SDS011;63771;52.580;9.734;2023-05-08T10:07:48;7.00;;;6.40;;
75191;SDS011;63771;52.580;9.734;2023-05-08T10:10:14;6.43;;;5.93;;
75191;SDS011;63771;52.580;9.734;2023-05-08T10:12:46;6.78;;;6.15;;
75191;SDS011;63771;52.580;9.734;2023-05-08T10:15:12;6.40;;;5.80;;
75191;SDS011;63771;52.580;9.734;2023-05-08T10:17:40;9.30;;;6.33;;
75191;SDS011;63771;52.580;9.734;2023-05-08T10:20:12;7.15;;;6.15;;
75191;SDS011;63771;52.580;9.734;2023-05-08T10:22:40;7.07;;;6.47;;
75191;SDS011;63771;52.580;9.734;2023-05-08T10:25:16;6.82;;;5.93;;
75191;SDS011;63771;52.580;9.734;2023-05-08T10:30:42;6.20;;;5.60;;
75191;SDS011;63771;52.580;9.734;2023-05-08T10:33:11;6.25;;;5.57;;
75191;SDS011;63771;52.580;9.734;2023-05-08T10:35:39;6.30;;;5.75;;
75191;SDS011;63771;52.580;9.734;2023-05-08T10:38:06;5.93;;;5.43;;
75191;SDS011;63771;52.580;9.734;2023-05-08T10:40:32;5.20;;;4.82;;
75191;SDS011;63771;52.580;9.734;2023-05-08T10:42:58;5.83;;;5.33;;
75191;SDS011;63771;52.580;9.734;2023-05-08T10:45:24;5.00;;;4.60;;
75191;SDS011;63771;52.580;9.734;2023-05-08T10:47:58;5.25;;;4.85;;
75191;SDS011;63771;52.580;9.734;2023-05-08T10:51:05;4.70;;;4.30;;
75191;SDS011;63771;52.580;9.734;2023-05-08T10:53:45;5.10;;;4.63;;
75191;SDS011;63771;52.580;9.734;2023-05-08T10:56:14;4.05;;;3.78;;
75191;SDS011;63771;52.580;9.734;2023-05-08T10:58:40;4.33;;;4.03;;
75191;SDS011;63771;52.580;9.734;2023-05-08T11:03:31;4.22;;;3.92;;
75191;SDS011;63771;52.580;9.734;2023-05-08T11:05:58;4.10;;;3.75;;
75191;SDS011;63771;52.580;9.734;2023-05-08T11:08:27;3.53;;;3.22;;
75191;SDS011;63771;52.580;9.734;2023-05-08T11:13:41;3.63;;;3.42;;
75191;SDS011;63771;52.580;9.734;2023-05-08T11:16:12;2.88;;;2.67;;
75191;SDS011;63771;52.580;9.734;2023-05-08T11:18:37;3.25;;;3.05;;
75191;SDS011;63771;52.580;9.734;2023-05-08T11:30:21;4.43;;;4.05;;
75191;SDS011;63771;52.580;9.734;2023-05-08T11:38:19;3.75;;;3.45;;
75191;SDS011;63771;52.580;9.734;2023-05-08T11:41:03;3.88;;;3.58;;
75191;SDS011;63771;52.580;9.734;2023-05-08T11:45:59;3.80;;;3.60;;
75191;SDS011;63771;52.580;9.734;2023-05-08T11:48:25;17.25;;;4.95;;
75191;SDS011;63771;52.580;9.734;2023-05-08T11:50:51;3.55;;;3.28;;
75191;SDS011;63771;52.580;9.734;2023-05-08T11:53:16;4.53;;;4.22;;
75191;SDS011;63771;52.580;9.734;2023-05-08T11:55:42;4.30;;;3.95;;
75191;SDS011;63771;52.580;9.734;2023-05-08T11:58:12;4.25;;;3.95;;
75191;SDS011;63771;52.580;9.734;2023-05-08T12:00:40;4.78;;;4.25;;
75191;SDS011;63771;52.580;9.734;2023-05-08T12:03:10;4.78;;;4.38;;
75191;SDS011;63771;52.580;9.734;2023-05-08T12:05:37;4.13;;;3.83;;
75191;SDS011;63771;52.580;9.734;2023-05-08T12:08:02;6.75;;;4.25;;
75191;SDS011;63771;52.580;9.734;2023-05-08T12:10:30;4.43;;;4.00;;
75191;SDS011;63771;52.580;9.734;2023-05-08T12:12:55;3.90;;;3.60;;
75191;SDS011;63771;52.580;9.734;2023-05-08T12:15:21;4.43;;;3.93;;
75191;SDS011;63771;52.580;9.734;2023-05-08T12:17:46;4.47;;;4.17;;
75191;SDS011;63771;52.580;9.734;2023-05-08T12:20:12;4.22;;;3.92;;
75191;SDS011;63771;52.580;9.734;2023-05-08T12:22:43;3.30;;;3.10;;
75191;SDS011;63771;52.580;9.734;2023-05-08T12:25:15;5.82;;;4.70;;
75191;SDS011;63771;52.580;9.734;2023-05-08T12:27:42;5.10;;;4.68;;
75191;SDS011;63771;52.580;9.734;2023-05-08T12:30:08;4.13;;;3.83;;
75191;SDS011;63771;52.580;9.734;2023-05-08T12:32:35;4.07;;;3.78;;
75191;SDS011;63771;52.580;9.734;2023-05-08T12:35:01;5.22;;;4.72;;
75191;SDS011;63771;52.580;9.734;2023-05-08T12:37:27;4.45;;;4.15;;
75191;SDS011;63771;52.580;9.734;2023-05-08T12:39:53;3.90;;;3.60;;
75191;SDS011;63771;52.580;9.734;2023-05-08T12:42:18;3.60;;;3.40;;
75191;SDS011;63771;52.580;9.734;2023-05-08T12:44:52;5.13;;;4.07;;
75191;SDS011;63771;52.580;9.734;2023-05-08T12:47:18;4.63;;;4.25;;
75191;SDS011;63771;52.580;9.734;2023-05-08T12:49:44;4.43;;;4.03;;
75191;SDS011;63771;52.580;9.734;2023-05-08T12:52:13;3.85;;;3.55;;
75191;SDS011;63771;52.580;9.734;2023-05-08T12:54:39;4.18;;;3.88;;
75191;SDS011;63771;52.580;9.734;2023-05-08T12:57:12;7.22;;;4.10;;
75191;SDS011;63771;52.580;9.734;2023-05-08T12:59:39;4.38;;;3.70;;
75191;SDS011;63771;52.580;9.734;2023-05-08T13:02:10;5.47;;;4.47;;
75191;SDS011;63771;52.580;9.734;2023-05-08T13:04:43;5.03;;;4.40;;
75191;SDS011;63771;52.580;9.734;2023-05-08T13:07:09;5.20;;;4.80;;
75191;SDS011;63771;52.580;9.734;2023-05-08T13:09:34;5.40;;;4.40;;
75191;SDS011;63771;52.580;9.734;2023-05-08T13:12:00;4.15;;;3.85;;
75191;SDS011;63771;52.580;9.734;2023-05-08T13:14:26;4.30;;;3.70;;
75191;SDS011;63771;52.580;9.734;2023-05-08T13:16:51;4.15;;;3.85;;
75191;SDS011;63771;52.580;9.734;2023-05-08T13:19:16;3.92;;;3.63;;
75191;SDS011;63771;52.580;9.734;2023-05-08T13:21:43;4.20;;;3.90;;
75191;SDS011;63771;52.580;9.734;2023-05-08T13:24:11;4.03;;;3.80;;
75191;SDS011;63771;52.580;9.734;2023-05-08T13:26:36;5.57;;;3.92;;
75191;SDS011;63771;52.580;9.734;2023-05-08T13:29:02;4.63;;;3.90;;
75191;SDS011;63771;52.580;9.734;2023-05-08T13:31:27;4.73;;;4.07;;
75191;SDS011;63771;52.580;9.734;2023-05-08T13:33:52;5.30;;;4.23;;
75191;SDS011;63771;52.580;9.734;2023-05-08T13:36:18;3.73;;;3.53;;
75191;SDS011;63771;52.580;9.734;2023-05-08T13:38:44;3.50;;;3.28;;
75191;SDS011;63771;52.580;9.734;2023-05-08T13:41:11;3.78;;;3.20;;
75191;SDS011;63771;52.580;9.734;2023-05-08T13:43:36;3.60;;;3.30;;
75191;SDS011;63771;52.580;9.734;2023-05-08T13:46:01;3.13;;;2.93;;
75191;SDS011;63771;52.580;9.734;2023-05-08T13:48:27;3.00;;;2.80;;
75191;SDS011;63771;52.580;9.734;2023-05-08T13:50:52;4.18;;;3.40;;
75191;SDS011;63771;52.580;9.734;2023-05-08T13:53:18;3.83;;;3.40;;
75191;SDS011;63771;52.580;9.734;2023-05-08T13:55:43;3.53;;;2.83;;
75191;SDS011;63771;52.580;9.734;2023-05-08T13:58:08;2.97;;;2.77;;
75191;SDS011;63771;52.580;9.734;2023-05-08T14:00:34;4.55;;;2.63;;
75191;SDS011;63771;52.580;9.734;2023-05-08T14:02:59;3.05;;;2.80;;
75191;SDS011;63771;52.580;9.734;2023-05-08T14:05:25;5.73;;;2.80;;
75191;SDS011;63771;52.580;9.734;2023-05-08T14:07:50;3.57;;;3.33;;
75191;SDS011;63771;52.580;9.734;2023-05-08T14:10:15;3.40;;;3.13;;
75191;SDS011;63771;52.580;9.734;2023-05-08T14:12:41;3.10;;;2.90;;
75191;SDS011;63771;52.580;9.734;2023-05-08T14:15:06;4.15;;;3.50;;
75191;SDS011;63771;52.580;9.734;2023-05-08T14:17:32;4.97;;;4.55;;
75191;SDS011;63771;52.580;9.734;2023-05-08T14:19:58;3.40;;;3.10;;
75191;SDS011;63771;52.580;9.734;2023-05-08T14:22:23;3.58;;;3.38;;
75191;SDS011;63771;52.580;9.734;2023-05-08T14:24:49;2.88;;;2.67;;
75191;SDS011;63771;52.580;9.734;2023-05-08T14:27:14;5.63;;;2.63;;
75191;SDS011;63771;52.580;9.734;2023-05-08T14:29:39;2.47;;;2.27;;
75191;SDS011;63771;52.580;9.734;2023-05-08T14:32:05;3.20;;;2.95;;
75191;SDS011;63771;52.580;9.734;2023-05-08T14:34:31;2.80;;;2.40;;
75191;SDS011;63771;52.580;9.734;2023-05-08T14:36:56;2.83;;;2.63;;
75191;SDS011;63771;52.580;9.734;2023-05-08T14:39:22;9.60;;;2.73;;
75191;SDS011;63771;52.580;9.734;2023-05-08T14:41:47;6.70;;;2.78;;
75191;SDS011;63771;52.580;9.734;2023-05-08T14:44:13;2.67;;;2.58;;
75191;SDS011;63771;52.580;9.734;2023-05-08T14:46:38;3.15;;;2.92;;
75191;SDS011;63771;52.580;9.734;2023-05-08T14:49:03;2.97;;;2.77;;
75191;SDS011;63771;52.580;9.734;2023-05-08T14:51:29;2.78;;;2.58;;
75191;SDS011;63771;52.580;9.734;2023-05-08T14:53:56;2.47;;;2.38;;
75191;SDS011;63771;52.580;9.734;2023-05-08T14:56:21;2.80;;;2.60;;
75191;SDS011;63771;52.580;9.734;2023-05-08T14:58:51;2.92;;;2.72;;
75191;SDS011;63771;52.580;9.734;2023-05-08T15:01:19;4.13;;;3.20;;
75191;SDS011;63771;52.580;9.734;2023-05-08T15:03:44;3.05;;;2.65;;
75191;SDS011;63771;52.580;9.734;2023-05-08T15:06:16;2.97;;;2.75;;
75191;SDS011;63771;52.580;9.734;2023-05-08T15:08:42;3.20;;;3.00;;
75191;SDS011;63771;52.580;9.734;2023-05-08T15:11:07;5.27;;;2.60;;
75191;SDS011;63771;52.580;9.734;2023-05-08T15:13:32;5.47;;;3.03;;
75191;SDS011;63771;52.580;9.734;2023-05-08T15:15:58;3.70;;;2.80;;
75191;SDS011;63771;52.580;9.734;2023-05-08T15:18:23;3.60;;;2.93;;
75191;SDS011;63771;52.580;9.734;2023-05-08T15:20:52;4.30;;;3.80;;
75191;SDS011;63771;52.580;9.734;2023-05-08T15:23:17;4.03;;;3.38;;
75191;SDS011;63771;52.580;9.734;2023-05-08T15:25:44;7.88;;;2.90;;
75191;SDS011;63771;52.580;9.734;2023-05-08T15:28:09;2.47;;;2.38;;
75191;SDS011;63771;52.580;9.734;2023-05-08T15:30:35;2.57;;;2.47;;
75191;SDS011;63771;52.580;9.734;2023-05-08T15:33:00;3.30;;;3.10;;
75191;SDS011;63771;52.580;9.734;2023-05-08T15:35:25;3.00;;;2.80;;
75191;SDS011;63771;52.580;9.734;2023-05-08T15:37:50;2.60;;;2.50;;
75191;SDS011;63771;52.580;9.734;2023-05-08T15:40:16;2.90;;;2.53;;